หน้าหลัก
METAR-TAF:

METAR-TAF

ท่าอากาศยาน :

Caribou, เมน, สหรัฐอเมริกา

ละติจูด: 46-52-02N, ลองจิจูด: 068-00-48W, ความสูง: 191 ม.

การสังเกตสภาพอากาศปัจจุบัน

รายงานได้ทำขึ้นเมื่อ 16 นาทีที่แล้ว ณ เวลา 01:54 UTC
ลม 5 นอตจากตะวันตก/ตะวันตกเฉียงใต้
อุณหภูมิ 18°C
ความชื้น 68%
ความกดอากาศ 1009 hPa
ทัศนวิสัย: 16.1 กม.
ท้องฟ้าแจ่มใส

METAR: KCAR 190154Z AUTO 24005KT 10SM CLR 18/12 A2980 RMK AO2 SLP092 T01830122

เวลา: 22:10 (02:10 UTC)

การพยากรณ์

รายงานได้ทำขึ้นเมื่อ 2 ชั่วโมงและ 50 นาทีที่แล้ว ณ เวลา 23:20 UTC
การพยากรณ์มีผลตั้งแต่วันที่ 19 ณ เวลา 00 UTC จนถึงวันที่ 19 ณ เวลา 24 UTC
ลม 8 นอตจากตะวันตกโดยมีลมกระโชกได้ถึง16 นอต
ทัศนวิสัย: 10 กม.
มีเมฆน้อยที่ความสูง 7000 ฟุต
จาก 19 ณ เวลา 0200 UTC
ลม 6 นอตจากตะวันตก/ตะวันตกเฉียงเหนือ
ทัศนวิสัย: 10 กม.
ท้องฟ้าแจ่มใส
จาก 19 ณ เวลา 1400 UTC
ลม 8 นอตจากตะวันตกโดยมีลมกระโชกได้ถึง16 นอต
ทัศนวิสัย: 10 กม.
มีเมฆน้อยที่ความสูง 7000 ฟุต

TAF: KCAR 182320Z 1900/1924 27008G16KT P6SM FEW070 FM190200 29006KT P6SM SKC FM191400 28008G16KT P6SM FEW070

สังเกตการณ์สภาพอากาศและพยากรณ์อากาศของสนามบินมากกว่า 4000 แห่ง (รายงาน METAR และ TAF).

สถานีที่ดูได้จะแสดงไว้ด้วยจุดสีเหลืองและสีแดงบนแผนที่.

เลื่อนเมาส์ไปเหนือจุดเพื่อดูชื่อสถานี.

แล้วคลิกเพื่อดูสังเกตการณ์และการพยากรณ์สภาพอากาศ.

ในการเปลี่ยนแผนที่: คลิกที่ปุ่มสีเขียวที่มีกากบาทสีดำเพื่อซูมเข้า; ที่ปุ่มสีเขียวที่มีขีดเพื่อซูมออก; หรือที่ลูกศรสีเขียวเพื่อไปยังแผนที่ที่อยู่ติดกัน.


METAR-TAF: